Time;durP1;ratioP1;P1;durP2;ratioP2;P2;SDS_P1;SDS_P2;PMS_P1;PMS_P2;Temp;Humidity;BMP_temperature;BMP_pressure;BME280_temperature;BME280_humidity;BME280_pressure;Samples;Min_cycle;Max_cycle;Signal;HPM_P1;HPM_P2
2021/07/20 00:02:37;;;;;;;;;14.00;12.75;;;;;26.61;50.08;101531.41;5002756;28;51249;-48
2021/07/20 00:05:08;;;;;;;;;15.50;13.75;;;;;26.62;49.79;101541.44;5011497;28;51125;-48
2021/07/20 00:07:34;;;;;;;;;13.00;13.00;;;;;26.62;49.54;101533.09;5004211;28;51196;-48
2021/07/20 00:10:00;;;;;;;;;13.00;13.00;;;;;26.61;49.62;101533.34;4998796;28;51017;-48
2021/07/20 00:12:26;;;;;;;;;13.00;11.50;;;;;26.61;50.09;101533.34;5006788;28;51030;-49
2021/07/20 00:14:51;;;;;;;;;15.25;14.75;;;;;26.59;49.57;101532.75;5014746;28;51918;-49
2021/07/20 00:17:21;;;;;;;;;18.25;15.75;;;;;26.58;49.89;101531.91;5002383;28;51043;-48
2021/07/20 00:19:46;;;;;;;;;15.75;13.75;;;;;26.57;50.00;101530.19;4998482;28;50891;-50
2021/07/20 00:22:12;;;;;;;;;13.50;11.75;;;;;26.56;49.28;101522.13;4998708;28;51000;-50
2021/07/20 00:24:37;;;;;;;;;15.00;11.75;;;;;26.55;49.61;101515.72;5005308;28;51960;-48
2021/07/20 00:27:02;;;;;;;;;16.50;15.25;;;;;26.56;49.22;101522.97;5016018;28;51036;-49
2021/07/20 00:29:28;;;;;;;;;12.50;10.00;;;;;26.55;49.24;101526.00;5016706;28;51315;-46
2021/07/20 00:31:53;;;;;;;;;11.75;11.75;;;;;26.54;49.23;101519.59;5001840;28;51108;-48
2021/07/20 00:34:18;;;;;;;;;13.50;12.00;;;;;26.53;49.37;101514.28;4998949;28;51180;-49
2021/07/20 00:36:44;;;;;;;;;15.00;13.00;;;;;26.53;49.37;101520.69;5000796;28;51329;-47
2021/07/20 00:39:09;;;;;;;;;13.00;12.00;;;;;26.52;49.64;101521.78;5016390;28;51070;-46
2021/07/20 00:41:34;;;;;;;;;13.25;9.00;;;;;26.52;49.63;101515.38;5008519;28;51041;-46
2021/07/20 00:44:00;;;;;;;;;10.50;10.50;;;;;26.51;49.19;101508.13;5017321;28;51027;-45
2021/07/20 00:46:25;;;;;;;;;12.75;12.25;;;;;26.52;49.20;101512.59;5015739;28;51040;-47
2021/07/20 00:48:50;;;;;;;;;12.00;11.25;;;;;26.50;49.46;101509.22;5013862;28;51263;-49
2021/07/20 00:51:16;;;;;;;;;15.75;11.75;;;;;26.50;49.36;101512.00;5011943;28;51507;-46
2021/07/20 00:53:41;;;;;;;;;13.25;11.50;;;;;26.49;49.12;101513.94;5014093;28;51761;-46
2021/07/20 00:56:07;;;;;;;;;11.50;10.75;;;;;26.48;48.83;101516.97;5007754;28;51191;-49
2021/07/20 00:58:32;;;;;;;;;11.75;11.25;;;;;26.48;49.17;101516.97;5006782;28;51165;-48
2021/07/20 01:00:58;;;;;;;;;17.25;13.75;;;;;26.48;49.58;101514.19;5016068;28;51119;-49
2021/07/20 01:03:23;;;;;;;;;12.75;11.25;;;;;26.47;48.91;101521.69;5007326;28;52235;-49
2021/07/20 01:05:50;;;;;;;;;10.75;10.50;;;;;26.46;48.92;101517.19;5004908;28;51112;-48
2021/07/20 01:08:16;;;;;;;;;11.50;11.50;;;;;26.46;49.09;101518.03;5008014;28;51109;-49
2021/07/20 01:10:43;;;;;;;;;13.00;11.00;;;;;26.45;49.27;101513.56;5010606;28;50960;-47
2021/07/20 01:13:10;;;;;;;;;12.50;10.50;;;;;26.44;49.07;101514.66;5009682;28;53130;-46
2021/07/20 01:15:37;;;;;;;;;14.00;10.75;;;;;26.43;49.28;101515.75;5012272;28;51136;-47
2021/07/20 01:18:04;;;;;;;;;11.50;11.50;;;;;26.43;49.38;101515.75;5007046;28;51135;-46
2021/07/20 01:20:31;;;;;;;;;10.25;10.25;;;;;26.43;49.30;101512.97;5015383;28;51223;-48
2021/07/20 01:22:59;;;;;;;;;10.00;10.00;;;;;26.44;49.04;101516.59;5016288;28;51986;-46
2021/07/20 01:25:26;;;;;;;;;11.50;9.00;;;;;26.43;49.09;101515.75;5007615;28;51384;-48
2021/07/20 01:27:59;;;;;;;;;11.50;10.25;;;;;26.42;49.10;101525.19;5012427;28;51216;-50
2021/07/20 01:30:26;;;;;;;;;10.75;10.50;;;;;26.42;49.07;101522.41;5014373;28;51095;-47
2021/07/20 01:32:52;;;;;;;;;12.00;10.50;;;;;26.42;49.15;101530.75;5015928;28;50956;-47
2021/07/20 01:35:19;;;;;;;;;10.75;10.75;;;;;26.42;49.10;101525.19;5006918;28;51066;-48
2021/07/20 01:37:47;;;;;;;;;11.50;11.00;;;;;26.41;49.10;101526.28;5003058;28;51020;-46
2021/07/20 01:40:13;;;;;;;;;14.25;13.25;;;;;26.41;48.90;101528.22;5015636;28;52311;-46
2021/07/20 01:42:43;;;;;;;;;14.00;12.50;;;;;26.40;48.67;101524.59;4997139;28;51903;-52
2021/07/20 01:45:09;;;;;;;;;10.50;10.25;;;;;26.39;48.70;101522.06;5005273;28;50960;-46
2021/07/20 01:47:38;;;;;;;;;12.25;11.00;;;;;26.37;48.91;101522.31;5010229;28;51125;-48
2021/07/20 01:50:05;;;;;;;;;12.50;12.00;;;;;26.39;49.03;101533.19;4997797;28;51081;-47
2021/07/20 01:52:32;;;;;;;;;12.25;11.25;;;;;26.38;49.08;101528.72;4997158;28;51936;-46
2021/07/20 01:54:59;;;;;;;;;13.00;12.00;;;;;26.38;49.20;101525.94;5006238;28;51353;-48
2021/07/20 01:57:24;;;;;;;;;15.00;12.25;;;;;26.37;48.71;101527.03;5011261;28;52275;-46
2021/07/20 01:59:49;;;;;;;;;13.75;13.50;;;;;26.37;49.12;101529.81;5003398;28;51182;-46
2021/07/20 02:02:28;;;;;;;;;11.50;11.25;;;;;26.35;48.75;101521.66;5001376;28;52770;-47
2021/07/20 02:10:25;;;;;;;;;13.50;11.25;;;;;26.33;48.67;101526.63;5015980;28;51060;-48
2021/07/20 02:12:52;;;;;;;;;12.25;10.50;;;;;26.32;49.18;101527.72;5006973;28;50953;-48
2021/07/20 02:15:18;;;;;;;;;14.25;12.75;;;;;26.33;49.30;101531.34;5012440;28;51252;-50
2021/07/20 02:17:47;;;;;;;;;15.50;14.00;;;;;26.31;48.67;101520.47;5010660;28;51093;-46
2021/07/20 02:20:18;;;;;;;;;17.00;12.25;;;;;26.31;48.72;101528.81;4996731;28;51238;-50
2021/07/20 02:22:44;;;;;;;;;12.75;9.25;;;;;26.31;48.93;101531.59;4996622;28;51188;-48
2021/07/20 02:25:11;;;;;;;;;14.50;12.25;;;;;26.30;48.73;101529.91;5011205;28;51046;-48
2021/07/20 02:27:38;;;;;;;;;15.00;14.75;;;;;26.30;48.69;101531.84;5010802;28;51014;-47
2021/07/20 02:30:18;;;;;;;;;13.00;12.50;;;;;26.30;48.87;101529.06;4997888;28;51209;-48
2021/07/20 02:32:44;;;;;;;;;14.25;13.75;;;;;26.29;48.59;101524.59;5010865;28;52720;-46
2021/07/20 02:35:15;;;;;;;;;16.75;15.75;;;;;26.28;48.54;101528.47;5014993;28;51020;-49
2021/07/20 02:37:42;;;;;;;;;15.75;14.00;;;;;26.27;48.58;101524.00;5014273;28;51053;-49
2021/07/20 02:40:10;;;;;;;;;12.75;12.25;;;;;26.27;48.88;101524.84;5007115;28;50974;-48
2021/07/20 02:42:35;;;;;;;;;12.75;10.50;;;;;26.27;48.49;101518.44;5012026;28;51867;-48
2021/07/20 02:45:04;;;;;;;;;12.00;11.50;;;;;26.26;48.68;101514.84;5018399;28;51025;-47
2021/07/20 02:47:32;;;;;;;;;11.75;10.00;;;;;26.26;48.54;101517.63;5008209;28;51138;-48
2021/07/20 02:49:58;;;;;;;;;11.75;10.25;;;;;26.25;48.64;101513.13;5019445;28;51077;-51
2021/07/20 02:52:28;;;;;;;;;14.50;13.75;;;;;26.25;48.83;101523.38;5019101;28;51887;-48
2021/07/20 02:54:55;;;;;;;;;12.00;11.75;;;;;26.25;48.42;101520.59;4999992;28;51043;-47
2021/07/20 02:57:22;;;;;;;;;9.50;9.50;;;;;26.24;48.37;101516.16;5005904;28;51247;-49
2021/07/20 02:59:47;;;;;;;;;13.00;12.50;;;;;26.23;48.54;101512.53;5001129;28;51129;-45
2021/07/20 03:02:14;;;;;;;;;13.50;13.50;;;;;26.22;48.64;101513.63;5013526;28;51952;-45
2021/07/20 03:04:40;;;;;;;;;15.25;14.25;;;;;26.23;48.56;101520.84;5001729;28;51881;-47
2021/07/20 03:07:10;;;;;;;;;16.50;15.50;;;;;26.22;48.22;101524.72;5001220;28;51178;-47
2021/07/20 03:09:36;;;;;;;;;13.50;12.75;;;;;26.22;48.58;101526.66;5000878;28;51046;-48
2021/07/20 03:12:05;;;;;;;;;14.25;13.00;;;;;26.22;48.27;101523.88;5003772;28;51134;-45
2021/07/20 03:14:32;;;;;;;;;12.25;12.25;;;;;26.22;48.43;101524.72;5018913;28;51245;-47
2021/07/20 03:16:59;;;;;;;;;14.50;12.50;;;;;26.21;48.53;101517.50;5017050;28;51032;-46
2021/07/20 03:19:28;;;;;;;;;14.00;13.25;;;;;26.21;48.50;101519.41;5012325;28;51034;-48
2021/07/20 03:21:56;;;;;;;;;16.50;14.50;;;;;26.19;48.18;101505.78;5018489;28;50970;-48
2021/07/20 03:24:24;;;;;;;;;16.75;15.50;;;;;26.19;48.23;101516.91;5008124;28;51208;-49
2021/07/20 03:26:53;;;;;;;;;18.75;12.50;;;;;26.18;48.50;101515.22;4999493;28;51187;-47
2021/07/20 03:29:22;;;;;;;;;18.50;14.25;;;;;26.18;48.38;101520.75;5006079;28;50978;-48
2021/07/20 03:31:48;;;;;;;;;16.00;15.00;;;;;26.17;48.56;101519.06;5002670;28;51048;-47
2021/07/20 03:34:13;;;;;;;;;17.25;12.75;;;;;26.16;47.98;101518.22;4999183;28;51038;-50
2021/07/20 03:36:40;;;;;;;;;12.75;11.75;;;;;26.15;48.33;101522.06;4999471;28;51339;-46
2021/07/20 03:39:05;;;;;;;;;14.75;13.75;;;;;26.15;47.81;101521.22;5007374;28;50968;-48
2021/07/20 03:41:32;;;;;;;;;13.25;13.25;;;;;26.14;48.02;101519.53;5009862;28;52658;-47
2021/07/20 03:43:58;;;;;;;;;14.25;11.75;;;;;26.14;48.29;101519.53;5017687;28;50890;-47
2021/07/20 03:46:24;;;;;;;;;15.00;14.00;;;;;26.14;48.17;101522.31;5017755;28;50989;-45
2021/07/20 03:48:53;;;;;;;;;10.00;10.00;;;;;26.13;48.06;101523.41;5016213;28;51165;-46
2021/07/20 03:51:21;;;;;;;;;12.50;12.00;;;;;26.13;47.89;101523.41;5004524;28;51806;-46
2021/07/20 03:53:47;;;;;;;;;13.50;10.00;;;;;26.12;48.14;101518.94;4998698;28;51373;-45
2021/07/20 03:56:14;;;;;;;;;11.50;11.50;;;;;26.12;47.97;101532.84;5001736;28;51074;-47
2021/07/20 03:58:41;;;;;;;;;12.00;12.00;;;;;26.11;47.79;101528.38;5004925;28;51055;-47
2021/07/20 04:01:07;;;;;;;;;11.00;10.75;;;;;26.10;48.20;101527.53;5005159;28;51759;-49
2021/07/20 04:03:35;;;;;;;;;13.75;12.75;;;;;26.09;47.59;101528.63;5000614;28;51038;-52
2021/07/20 04:06:03;;;;;;;;;9.75;9.75;;;;;26.09;47.78;101527.78;4998532;28;51261;-45
2021/07/20 04:08:31;;;;;;;;;13.75;11.00;;;;;26.08;48.17;101526.09;5001234;28;51153;-50
2021/07/20 04:10:57;;;;;;;;;14.25;14.25;;;;;26.07;47.86;101530.81;5013765;28;52857;-51
2021/07/20 04:13:23;;;;;;;;;14.00;12.25;;;;;26.07;47.86;101536.34;5004855;28;51335;-47
2021/07/20 04:15:57;;;;;;;;;11.75;10.50;;;;;26.06;47.44;101537.44;5013611;28;51331;-46
2021/07/20 04:18:23;;;;;;;;;9.50;9.00;;;;;26.06;47.60;101540.22;5006076;28;51046;-49
2021/07/20 04:20:49;;;;;;;;;11.50;10.00;;;;;26.05;47.81;101535.75;4998276;28;51364;-50
2021/07/20 04:23:19;;;;;;;;;15.00;13.00;;;;;26.04;47.76;101534.03;5012827;28;51456;-50
2021/07/20 04:25:47;;;;;;;;;12.00;12.00;;;;;26.04;47.58;101547.91;5016151;28;51020;-46
2021/07/20 04:28:14;;;;;;;;;13.00;11.50;;;;;26.03;47.45;101543.47;5014275;28;51199;-46
2021/07/20 04:30:42;;;;;;;;;13.50;13.50;;;;;26.03;47.60;101548.16;5017497;28;51910;-48
2021/07/20 04:33:09;;;;;;;;;14.25;12.00;;;;;26.01;47.31;101550.34;5017192;28;50978;-46
2021/07/20 04:35:35;;;;;;;;;16.25;12.50;;;;;25.99;47.34;101542.28;5016220;28;51553;-46
2021/07/20 04:38:01;;;;;;;;;13.50;12.25;;;;;26.00;46.88;101555.06;5015104;28;51354;-46
2021/07/20 04:40:27;;;;;;;;;14.75;13.00;;;;;26.00;47.25;101543.13;4998802;28;51877;-49
2021/07/20 04:42:53;;;;;;;;;15.00;13.25;;;;;26.00;47.03;101551.44;4998055;28;51045;-45
2021/07/20 04:45:19;;;;;;;;;16.00;15.25;;;;;25.99;47.13;101544.19;5010531;28;51166;-47
2021/07/20 04:47:45;;;;;;;;;22.75;19.00;;;;;25.97;46.99;101552.78;5002735;28;51212;-49
2021/07/20 04:50:13;;;;;;;;;19.50;14.00;;;;;25.97;46.72;101549.16;5016373;28;51906;-49
2021/07/20 04:52:41;;;;;;;;;16.00;13.00;;;;;25.96;47.07;101551.09;5005560;28;50983;-46
2021/07/20 04:55:08;;;;;;;;;19.50;16.25;;;;;25.95;47.36;101551.31;5001978;28;51050;-48
2021/07/20 04:57:35;;;;;;;;;20.00;16.25;;;;;25.94;46.90;101552.41;5006884;28;51355;-46
2021/07/20 05:00:02;;;;;;;;;16.75;15.00;;;;;25.92;47.32;101552.63;5014048;28;52151;-46
2021/07/20 05:02:29;;;;;;;;;18.50;17.00;;;;;25.93;47.32;101561.81;5004012;28;51331;-49
2021/07/20 05:04:56;;;;;;;;;15.75;13.50;;;;;25.92;46.69;101560.13;4998215;28;51019;-47
2021/07/20 05:07:24;;;;;;;;;21.00;17.50;;;;;25.90;46.97;101564.00;5004890;28;51117;-51
2021/07/20 05:09:51;;;;;;;;;17.75;14.50;;;;;25.90;46.85;101561.22;4996930;28;53150;-46
2021/07/20 05:12:18;;;;;;;;;18.00;15.00;;;;;25.89;46.92;101567.84;5017466;28;51433;-46
2021/07/20 05:14:43;;;;;;;;;13.25;12.75;;;;;25.89;46.80;101567.00;5001250;28;51214;-50
2021/07/20 05:17:10;;;;;;;;;17.00;14.75;;;;;25.88;46.71;101568.09;5017196;28;51182;-48
2021/07/20 05:19:36;;;;;;;;;16.50;15.50;;;;;25.87;47.02;101561.72;5000307;28;51858;-48
2021/07/20 05:22:03;;;;;;;;;20.00;16.50;;;;;25.88;47.05;101573.66;4997501;28;51186;-49
2021/07/20 05:24:32;;;;;;;;;17.50;13.75;;;;;25.87;47.12;101571.97;4999616;28;51208;-50
2021/07/20 05:27:00;;;;;;;;;21.75;16.00;;;;;25.87;46.79;101575.59;5008698;28;51195;-46
2021/07/20 05:29:26;;;;;;;;;16.75;16.50;;;;;25.87;46.68;101569.19;5000410;28;51842;-50
2021/07/20 05:31:54;;;;;;;;;21.25;19.25;;;;;25.87;46.73;101574.75;4998059;28;51402;-47
2021/07/20 05:34:20;;;;;;;;;17.50;14.50;;;;;25.85;47.06;101577.75;5006073;28;51102;-47
2021/07/20 05:36:46;;;;;;;;;20.25;19.00;;;;;25.86;46.98;101575.84;5008462;28;51180;-51
2021/07/20 05:39:12;;;;;;;;;24.50;20.50;;;;;25.85;47.19;101572.22;5005835;28;51039;-49
2021/07/20 05:41:39;;;;;;;;;19.75;19.00;;;;;25.85;46.66;101569.44;5001790;28;51721;-49
2021/07/20 05:44:10;;;;;;;;;20.00;19.25;;;;;25.84;46.58;101576.03;5007113;28;50985;-48
2021/07/20 05:46:37;;;;;;;;;19.75;19.25;;;;;25.84;46.68;101583.53;5007171;28;51040;-51
2021/07/20 05:49:03;;;;;;;;;19.75;19.25;;;;;25.83;47.13;101576.28;5001965;28;51127;-48
2021/07/20 05:51:28;;;;;;;;;21.00;19.25;;;;;25.83;46.86;101584.63;5008060;28;51028;-49
2021/07/20 05:53:54;;;;;;;;;22.25;20.00;;;;;25.82;46.70;101588.47;4997554;28;51174;-46
2021/07/20 05:56:21;;;;;;;;;20.50;20.00;;;;;25.81;46.77;101590.41;4999505;28;51084;-49
2021/07/20 05:58:47;;;;;;;;;22.00;21.50;;;;;25.81;46.77;101586.78;5004289;28;51134;-49
2021/07/20 06:01:13;;;;;;;;;23.25;19.25;;;;;25.81;46.64;101586.78;5000594;28;51060;-45
2021/07/20 06:03:40;;;;;;;;;24.00;20.00;;;;;25.80;46.73;101588.72;5006695;28;51074;-45
2021/07/20 06:06:07;;;;;;;;;20.25;18.50;;;;;25.78;46.58;101590.91;4997292;28;51315;-48
2021/07/20 06:08:32;;;;;;;;;24.50;20.00;;;;;25.79;46.14;101591.75;5006160;28;51046;-45
2021/07/20 06:11:02;;;;;;;;;22.00;20.75;;;;;25.78;46.67;101588.13;5010938;28;51156;-45
2021/07/20 06:13:32;;;;;;;;;21.75;19.00;;;;;25.78;46.64;101590.91;5007348;28;51016;-46
2021/07/20 06:15:59;;;;;;;;;28.75;24.50;;;;;25.79;46.74;101594.53;5009423;28;51125;-45
2021/07/20 06:18:25;;;;;;;;;23.50;20.75;;;;;25.78;46.54;101593.69;5007567;28;51936;-46
2021/07/20 06:20:56;;;;;;;;;19.00;18.50;;;;;25.78;46.86;101590.06;5001665;28;50892;-45
2021/07/20 06:23:23;;;;;;;;;26.50;21.00;;;;;25.77;47.17;101591.16;5005743;28;51072;-45
2021/07/20 06:25:51;;;;;;;;;27.00;22.25;;;;;25.78;46.60;101590.91;5003779;28;51038;-46
2021/07/20 06:28:18;;;;;;;;;24.75;20.50;;;;;25.78;46.87;101599.22;5007143;28;51032;-45
2021/07/20 06:30:45;;;;;;;;;28.00;25.25;;;;;25.77;46.72;101597.53;5003344;28;51312;-47
2021/07/20 06:33:13;;;;;;;;;23.00;21.00;;;;;25.74;46.32;101600.81;5011177;28;51277;-44
2021/07/20 06:35:41;;;;;;;;;26.50;23.50;;;;;25.73;46.33;101601.84;5005768;28;51321;-45
2021/07/20 06:38:11;;;;;;;;;28.75;22.75;;;;;25.73;46.48;101601.00;5006513;28;52029;-44
2021/07/20 06:40:36;;;;;;;;;26.50;23.50;;;;;25.71;46.86;101592.94;5006886;28;51370;-45
2021/07/20 06:43:02;;;;;;;;;27.00;23.75;;;;;25.71;46.85;101597.63;5003821;28;51214;-45
2021/07/20 06:45:28;;;;;;;;;29.00;24.75;;;;;25.71;46.55;101598.50;5002794;28;51105;-46
2021/07/20 06:47:54;;;;;;;;;25.75;22.00;;;;;25.71;46.48;101605.97;5009573;28;51164;-43
2021/07/20 06:50:20;;;;;;;;;26.00;24.00;;;;;25.70;46.70;101605.13;5000000;28;50931;-44
2021/07/20 06:52:48;;;;;;;;;26.00;22.75;;;;;25.68;46.66;101601.72;5009734;28;51042;-45
2021/07/20 06:55:14;;;;;;;;;24.25;22.00;;;;;25.67;46.30;101607.50;5014512;28;51448;-44
2021/07/20 06:57:43;;;;;;;;;30.00;25.00;;;;;25.67;46.37;101601.97;5014160;28;51797;-44
2021/07/20 07:00:09;;;;;;;;;24.25;21.25;;;;;25.67;46.16;101605.56;5002615;28;51117;-44
2021/07/20 07:02:37;;;;;;;;;27.75;25.50;;;;;25.66;46.42;101617.75;5013248;28;51096;-46
2021/07/20 07:05:09;;;;;;;;;26.00;24.00;;;;;25.65;46.03;101612.47;5003499;28;51289;-45
2021/07/20 07:07:36;;;;;;;;;29.00;25.00;;;;;25.65;45.99;101609.69;5001425;28;51829;-48
2021/07/20 07:10:04;;;;;;;;;22.50;20.75;;;;;25.65;45.79;101615.22;4999507;28;51113;-46
2021/07/20 07:12:32;;;;;;;;;31.50;27.75;;;;;25.65;45.62;101609.69;5004418;28;51081;-47
2021/07/20 07:15:00;;;;;;;;;29.25;28.00;;;;;25.65;45.74;101616.06;5010985;28;51104;-48
2021/07/20 07:17:28;;;;;;;;;30.00;23.75;;;;;25.66;45.19;101612.22;5013427;28;54427;-47
2021/07/20 07:19:55;;;;;;;;;29.50;27.00;;;;;25.66;45.12;101614.16;5009104;28;51311;-45
2021/07/20 07:22:22;;;;;;;;;28.25;27.00;;;;;25.67;45.20;101613.91;5011174;28;51137;-45
2021/07/20 07:24:49;;;;;;;;;32.25;28.00;;;;;25.68;45.11;101618.38;5010992;28;51316;-46
2021/07/20 07:27:17;;;;;;;;;29.25;26.25;;;;;25.69;45.04;101617.28;5015494;28;51966;-50
2021/07/20 07:29:44;;;;;;;;;31.25;27.25;;;;;25.70;44.79;101624.53;4997431;28;51100;-46
2021/07/20 07:32:10;;;;;;;;;31.25;27.75;;;;;25.73;44.62;101620.44;5008744;28;51037;-52
2021/07/20 07:34:36;;;;;;;;;32.00;28.75;;;;;25.74;44.55;101620.22;5015692;28;51012;-46
2021/07/20 07:37:02;;;;;;;;;35.00;29.00;;;;;25.76;44.67;101623.59;5014206;28;53861;-45
2021/07/20 07:39:29;;;;;;;;;32.75;29.00;;;;;25.76;44.52;101617.22;5002477;28;51541;-45
2021/07/20 07:41:57;;;;;;;;;33.25;28.00;;;;;25.78;44.58;101620.59;5007906;28;51745;-47
2021/07/20 07:44:23;;;;;;;;;32.50;27.75;;;;;25.80;44.52;101624.81;5004296;28;51282;-46
2021/07/20 07:46:52;;;;;;;;;28.00;26.25;;;;;25.80;44.61;101629.50;5005236;28;52148;-48
2021/07/20 07:49:18;;;;;;;;;33.50;29.75;;;;;25.80;44.65;101633.13;5002577;28;51476;-47
2021/07/20 07:51:48;;;;;;;;;31.75;27.75;;;;;25.82;44.45;101622.63;5005475;28;51179;-46
2021/07/20 07:54:14;;;;;;;;;31.50;27.75;;;;;25.83;44.72;101632.66;5002045;28;51228;-45
2021/07/20 07:56:40;;;;;;;;;31.25;29.75;;;;;25.82;44.82;101625.41;4997614;28;51191;-49
2021/07/20 07:59:09;;;;;;;;;32.00;24.75;;;;;25.82;44.80;101628.19;5001356;28;51440;-45
2021/07/20 08:01:37;;;;;;;;;30.25;27.75;;;;;25.84;44.88;101626.00;5009201;28;51230;-45
2021/07/20 08:04:04;;;;;;;;;31.75;27.25;;;;;25.86;44.47;101623.00;4997892;28;51083;-47
2021/07/20 08:06:31;;;;;;;;;31.50;28.50;;;;;25.85;44.79;101622.16;5001722;28;51053;-46
2021/07/20 08:08:59;;;;;;;;;30.50;27.00;;;;;25.85;45.10;101627.72;5004297;28;51459;-47
2021/07/20 08:11:29;;;;;;;;;29.25;26.50;;;;;25.87;45.09;101624.69;5013483;28;51162;-45
2021/07/20 08:13:57;;;;;;;;;29.50;29.00;;;;;25.87;44.98;101619.16;5002800;28;51224;-47
2021/07/20 08:16:25;;;;;;;;;26.50;23.00;;;;;25.89;44.90;101626.16;5001107;28;51041;-48
2021/07/20 08:18:51;;;;;;;;;35.75;29.00;;;;;25.88;44.89;101624.47;5013994;28;51082;-46
2021/07/20 08:21:17;;;;;;;;;31.75;25.75;;;;;25.89;45.18;101625.31;5005161;28;51190;-46
2021/07/20 08:23:44;;;;;;;;;38.00;30.50;;;;;25.90;44.53;101627.00;5016987;28;50975;-45
2021/07/20 08:26:18;;;;;;;;;32.25;28.00;;;;;25.90;45.08;101624.22;5013967;28;51688;-44
2021/07/20 08:29:01;;;;;;;;;33.75;30.25;;;;;25.92;44.82;101623.97;5009291;28;51339;-49
2021/07/20 08:31:32;;;;;;;;;26.25;24.25;;;;;25.93;44.96;101625.66;5005698;28;51106;-46
2021/07/20 08:34:02;;;;;;;;;32.25;30.50;;;;;25.93;44.94;101625.66;5008215;28;51120;-48
2021/07/20 08:36:28;;;;;;;;;34.75;29.25;;;;;25.93;45.09;101626.50;5006746;28;52853;-53
2021/07/20 08:38:57;;;;;;;;;34.00;28.25;;;;;25.94;45.00;101619.00;5009426;28;51178;-48
2021/07/20 08:41:41;;;;;;;;;26.75;26.00;;;;;25.95;45.03;101623.47;5000849;28;51253;-51
2021/07/20 08:44:27;;;;;;;;;32.00;26.25;;;;;25.95;45.03;101623.47;5001945;28;51268;-52
2021/07/20 08:47:09;;;;;;;;;31.00;25.75;;;;;25.96;45.01;101619.66;5002206;28;52078;-50
2021/07/20 08:50:00;;;;;;;;;31.00;25.75;;;;;25.96;45.12;101626.03;5001207;28;51134;-47
2021/07/20 08:52:40;;;;;;;;;24.00;22.75;;;;;25.98;45.38;101626.63;4998651;28;51163;-47
2021/07/20 08:55:13;;;;;;;;;27.25;23.00;;;;;25.98;45.20;101620.25;5004350;28;51215;-50
2021/07/20 08:57:53;;;;;;;;;25.25;22.75;;;;;25.99;45.08;101617.22;4999583;28;52186;-49
2021/07/20 09:00:22;;;;;;;;;28.25;26.50;;;;;26.00;45.21;101620.84;5001411;28;51055;-48
2021/07/20 09:03:10;;;;;;;;;25.00;22.75;;;;;26.01;45.20;101623.38;5006438;28;51142;-48
2021/07/20 09:05:49;;;;;;;;;35.25;28.50;;;;;26.01;45.14;101626.16;5009322;28;51157;-50
2021/07/20 09:08:34;;;;;;;;;29.25;24.75;;;;;26.01;45.28;101626.16;5010350;28;51331;-49
2021/07/20 09:11:32;;;;;;;;;29.75;26.00;;;;;26.03;45.38;101626.75;4998408;28;51122;-48
2021/07/20 09:14:01;;;;;;;;;27.50;23.50;;;;;26.06;45.50;101619.88;5005665;28;50879;-46
2021/07/20 09:16:40;;;;;;;;;28.25;23.75;;;;;26.06;45.32;101626.28;4999691;28;52543;-51
2021/07/20 09:19:12;;;;;;;;;27.75;25.75;;;;;26.07;45.09;101622.41;5010585;28;53821;-50
2021/07/20 09:21:44;;;;;;;;;32.25;24.75;;;;;26.08;45.35;101618.56;5004517;28;51412;-50
2021/07/20 09:24:18;;;;;;;;;27.50;20.75;;;;;26.08;45.61;101620.50;4998509;28;51233;-48
2021/07/20 09:26:53;;;;;;;;;26.00;23.50;;;;;26.10;45.40;101623.88;5005111;28;51126;-50
2021/07/20 09:29:23;;;;;;;;;25.50;24.25;;;;;26.12;45.51;101621.69;5004311;28;51792;-48
2021/07/20 09:32:05;;;;;;;;;30.25;23.00;;;;;26.12;45.71;101628.06;5006042;28;51158;-49
2021/07/20 09:34:42;;;;;;;;;25.00;22.25;;;;;26.15;45.61;101629.53;4998134;28;51114;-48
2021/07/20 09:37:15;;;;;;;;;31.00;29.75;;;;;26.16;45.39;101625.69;5003726;28;51222;-49
2021/07/20 09:39:43;;;;;;;;;27.00;18.75;;;;;26.18;45.66;101623.50;5004938;28;51676;-47
2021/07/20 09:42:15;;;;;;;;;24.50;22.25;;;;;26.18;45.64;101613.25;5003245;28;51029;-47
2021/07/20 09:44:44;;;;;;;;;28.75;23.75;;;;;26.20;45.65;101624.09;5006847;28;51117;-47
2021/07/20 09:47:19;;;;;;;;;23.50;22.75;;;;;26.20;45.51;101621.31;5001233;28;51108;-48
2021/07/20 09:50:04;;;;;;;;;28.00;24.00;;;;;26.24;45.83;101613.34;5005042;28;51137;-48
2021/07/20 09:52:47;;;;;;;;;26.25;22.75;;;;;26.25;45.86;101606.69;4997895;28;51064;-48
2021/07/20 09:55:28;;;;;;;;;31.50;25.50;;;;;26.26;45.90;101617.59;4997581;28;51389;-52
2021/07/20 09:58:16;;;;;;;;;21.50;20.25;;;;;26.27;45.60;101619.28;5001032;28;51042;-49
2021/07/20 10:01:17;;;;;;;;;26.50;25.50;;;;;26.29;45.60;101622.66;5001517;28;52009;-47
2021/07/20 10:04:08;;;;;;;;;26.50;23.50;;;;;26.29;45.76;101625.44;4998185;28;51280;-49
2021/07/20 10:06:40;;;;;;;;;22.75;20.00;;;;;26.31;45.75;101614.91;5008392;28;51100;-47
2021/07/20 10:09:11;;;;;;;;;30.75;23.75;;;;;26.31;45.85;101611.28;4996925;28;51153;-49
2021/07/20 10:11:54;;;;;;;;;18.25;17.75;;;;;26.32;45.49;101615.75;5006928;28;52967;-48
2021/07/20 10:14:40;;;;;;;;;26.75;17.50;;;;;26.34;45.96;101610.78;5001919;28;51047;-51
2021/07/20 10:17:20;;;;;;;;;21.25;15.75;;;;;26.33;45.59;101601.63;4997977;28;51075;-48
2021/07/20 10:20:21;;;;;;;;;20.00;17.75;;;;;26.35;45.53;101601.38;4996750;28;51405;-47
2021/07/20 10:22:58;;;;;;;;;25.50;20.75;;;;;26.36;45.31;101591.94;5008351;28;52783;-50
2021/07/20 10:25:51;;;;;;;;;18.50;17.50;;;;;26.36;45.93;101595.56;5001972;28;51352;-48
2021/07/20 10:28:31;;;;;;;;;17.50;14.25;;;;;26.36;45.35;101590.00;5002679;28;51038;-49
2021/07/20 10:31:01;;;;;;;;;20.00;19.00;;;;;26.38;45.38;101584.28;4997571;28;51194;-51
2021/07/20 10:33:32;;;;;;;;;21.75;20.00;;;;;26.38;45.44;101585.13;5006828;28;52277;-54
2021/07/20 10:36:13;;;;;;;;;20.50;17.75;;;;;26.39;45.18;101575.69;4998682;28;51956;-47
2021/07/20 10:39:04;;;;;;;;;18.25;16.75;;;;;26.39;45.63;101578.47;4997926;28;51030;-47
2021/07/20 10:41:48;;;;;;;;;21.25;20.75;;;;;26.40;45.40;101574.59;4970988;28;51154;-48
2021/07/20 10:44:29;;;;;;;;;20.50;19.25;;;;;26.40;45.59;101577.38;5005772;28;51858;-52
2021/07/20 10:46:58;;;;;;;;;24.50;21.00;;;;;26.41;45.28;101573.50;5002592;28;51140;-50
2021/07/20 10:49:50;;;;;;;;;23.00;21.50;;;;;26.42;45.68;101575.19;4999532;28;51372;-48
2021/07/20 10:52:46;;;;;;;;;43.75;35.25;;;;;26.43;46.21;101584.38;4998056;28;51150;-46
2021/07/20 10:55:21;;;;;;;;;45.50;36.00;;;;;26.44;46.04;101566.59;4984266;28;51038;-48
2021/07/20 10:57:57;;;;;;;;;41.25;35.75;;;;;26.48;46.44;101569.75;5007377;28;51432;-47
2021/07/20 11:00:29;;;;;;;;;43.75;34.75;;;;;26.48;46.35;101569.75;5003936;28;51010;-47
2021/07/20 11:03:19;;;;;;;;;37.25;32.75;;;;;26.50;46.22;101562.88;5008793;28;51199;-51
2021/07/20 11:05:48;;;;;;;;;39.00;34.00;;;;;26.50;46.24;101568.41;5006738;28;51918;-47
2021/07/20 11:08:16;;;;;;;;;36.75;32.25;;;;;26.53;46.50;101564.28;5003183;28;51061;-47
2021/07/20 11:10:49;;;;;;;;;34.00;30.75;;;;;26.54;46.90;101564.03;5000207;28;51049;-46
2021/07/20 11:13:21;;;;;;;;;36.25;32.75;;;;;26.56;46.43;101561.03;5007635;28;51156;-50
2021/07/20 11:15:53;;;;;;;;;36.25;30.25;;;;;26.56;46.27;101559.09;5000158;28;51989;-52
2021/07/20 11:18:23;;;;;;;;;42.50;38.00;;;;;26.57;46.43;101551.59;5002114;28;51212;-50
2021/07/20 11:20:51;;;;;;;;;37.00;32.75;;;;;26.58;46.58;101556.94;5016089;28;51057;-46
2021/07/20 11:23:19;;;;;;;;;40.00;35.00;;;;;26.58;46.50;101565.25;5000945;28;51166;-49
2021/07/20 11:25:45;;;;;;;;;39.50;33.75;;;;;26.59;46.86;101560.53;5003640;28;51540;-47
2021/07/20 11:28:12;;;;;;;;;38.00;33.75;;;;;26.61;46.56;101553.66;5010727;28;50981;-53